New Bedford, MA

4:54 PM EST on November 24, 2014 (GMT -0500)
Newport State | Change Station
CLOSE
Current Station
Airport
Location: Newport,
Elevation: 171 ft
Nearby Weather Stations

Elev 171 ft 41.53 °N, 71.28 °W | Updated 1 hour ago

Overcast
Overcast
62 °F
Feels Like 62 °F
N
17
Wind Variable Wind from South
Gusts 28 mph

Today
High -- | Low -- °F
--% Chance of Precip.
Yesterday
High -- | Low -- °F
Precip. -- in
6:43 AM 4:17 PM
Waxing Crescent, 7% visible
Pressure 29.66 in
Visibility 3.0 miles
Clouds Overcast 500 ft
Dew Point 59 °F
Humidity 90%
Rainfall 0.52 in
Snow Depth Not available.
UV 0 out of 12
Pollen .10 out of 12
Air Quality Not available.
Flu Activity Not available.
METAR KUUU 242053Z AUTO 19015G24KT 3SM BR OVC005 17/15 A2966 RMK AO2 PK WND 19027/2022 SLP042 T01670150 56009

More Conditions Fewer Conditions

Pressure 29.66 in
Visibility 3.0 miles
Clouds Overcast 500 ft
Dew Point 59 °F
Humidity 90%
Rainfall 0.52 in
Snow Depth Not available.
UV 0 out of 12
Pollen .10 out of 12
Air Quality Not available.
Flu Activity Not available.
METAR KUUU 242053Z AUTO 19015G24KT 3SM BR OVC005 17/15 A2966 RMK AO2 PK WND 19027/2022 SLP042 T01670150 56009

More Conditions Fewer Conditions

10-Day Weather Forecast

Almanac

Astronomy

Nov. 24, 2014 Rise Set
Actual Time
Civil Twilight
Nautical Twilight
Astronomical Twilight
Moon
Length of Visible Light
Length of Day
Tomorrow will be .
, % of the Moon is Illuminated

Today's Extremes

State Highs State Lows

Community

WunderPhotos

Upload Photos

1,773,415 photos uploaded!

WunderBlogs® & News

Nearby

Air Quality

  Air Quality AQ Index Pollutant
Not available.

Snow Depth

Station Depth Elevation

Earthquake Activity

City Distance Mag. Time & Date
Minimum magnitude displayed is 2.5.

Coastal Water Temperatures

Place Temperature

Nearby Weather Stations